Time;durP1;ratioP1;P1;durP2;ratioP2;P2;SDS_P1;SDS_P2;PMS_P1;PMS_P2;Temp;Humidity;BMP_temperature;BMP_pressure;BME280_temperature;BME280_humidity;BME280_pressure;Samples;Min_cycle;Max_cycle;Signal;HPM_P1;HPM_P2
2021/05/29 00:01:12;;;;;;;7.18;2.62;;;24.20;38.50;;;;;;4388024;32;20069;-37
2021/05/29 00:03:38;;;;;;;10.13;2.67;;;24.20;38.50;;;;;;4373951;32;20137;-38
2021/05/29 00:06:05;;;;;;;4.97;1.65;;;24.20;38.50;;;;;;4388705;32;20104;-38
2021/05/29 00:08:31;;;;;;;2.12;0.93;;;24.20;38.60;;;;;;4364159;32;20073;-38
2021/05/29 00:10:59;;;;;;;3.40;0.77;;;24.20;38.70;;;;;;4389851;32;20521;-38
2021/05/29 00:13:26;;;;;;;5.05;1.00;;;24.20;38.70;;;;;;4388537;32;20062;-38
2021/05/29 00:15:53;;;;;;;2.67;1.02;;;24.20;38.80;;;;;;4387632;32;20204;-38
2021/05/29 00:18:20;;;;;;;4.10;0.80;;;24.10;38.80;;;;;;4387679;32;20461;-38
2021/05/29 00:20:47;;;;;;;1.52;0.80;;;24.20;38.80;;;;;;4361371;32;20056;-37
2021/05/29 00:23:14;;;;;;;3.80;0.70;;;24.10;38.70;;;;;;4387879;32;20076;-37
2021/05/29 00:25:41;;;;;;;3.37;0.90;;;24.10;38.80;;;;;;4387790;32;20165;-37
2021/05/29 00:28:09;;;;;;;7.03;1.12;;;24.10;38.80;;;;;;4387636;32;20141;-38
2021/05/29 00:30:38;;;;;;;5.10;1.10;;;24.20;38.80;;;;;;4373617;32;20081;-38
2021/05/29 00:33:06;;;;;;;2.35;0.80;;;24.20;38.50;;;;;;4388033;32;20058;-37
2021/05/29 00:35:32;;;;;;;3.65;0.80;;;24.30;38.40;;;;;;4388003;32;20062;-38
2021/05/29 00:37:59;;;;;;;1.48;0.70;;;24.40;38.40;;;;;;4373837;32;20090;-37
2021/05/29 00:40:25;;;;;;;3.78;0.68;;;24.50;38.20;;;;;;4387513;32;20076;-38
2021/05/29 00:42:52;;;;;;;3.75;0.70;;;24.50;38.00;;;;;;4387594;32;20081;-38
2021/05/29 00:45:18;;;;;;;3.25;0.60;;;24.50;37.90;;;;;;4392821;32;20659;-38
2021/05/29 00:47:45;;;;;;;1.05;0.60;;;24.60;37.70;;;;;;4402693;32;20074;-36
2021/05/29 00:50:12;;;;;;;1.30;0.70;;;24.50;37.50;;;;;;4402668;32;20063;-37
2021/05/29 00:52:39;;;;;;;6.43;0.93;;;24.60;37.60;;;;;;4402863;32;20061;-36
2021/05/29 00:55:12;;;;;;;0.52;0.40;;;24.50;37.60;;;;;;4402589;32;20608;-37
2021/05/29 00:57:42;;;;;;;4.53;0.93;;;24.50;37.60;;;;;;4402373;32;20140;-37
2021/05/29 01:00:09;;;;;;;0.73;0.50;;;24.50;37.60;;;;;;4366236;32;20115;-37
2021/05/29 01:02:36;;;;;;;2.90;0.62;;;24.50;37.70;;;;;;4405078;32;20084;-40
2021/05/29 01:05:05;;;;;;;1.00;0.50;;;24.50;37.80;;;;;;4405464;32;20096;-38
2021/05/29 01:07:31;;;;;;;4.12;1.00;;;24.40;37.80;;;;;;4405458;32;20215;-36
2021/05/29 01:09:58;;;;;;;3.62;0.90;;;24.50;37.80;;;;;;4405055;32;20531;-38
2021/05/29 01:12:24;;;;;;;2.00;0.70;;;24.50;37.90;;;;;;4405157;32;20582;-37
2021/05/29 01:17:20;;;;;;;1.90;0.90;;;24.50;37.60;;;;;;4405061;32;20548;-38
2021/05/29 01:19:47;;;;;;;3.05;0.60;;;24.60;37.40;;;;;;4404988;32;20068;-38
2021/05/29 01:22:13;;;;;;;3.60;0.50;;;24.70;37.40;;;;;;4372126;32;20101;-38
2021/05/29 01:24:40;;;;;;;5.53;0.65;;;24.70;37.40;;;;;;4372332;32;20086;-39
2021/05/29 01:27:07;;;;;;;3.05;0.95;;;24.80;37.30;;;;;;4372745;32;20692;-38
2021/05/29 01:29:35;;;;;;;0.65;0.50;;;24.80;37.10;;;;;;4372433;32;20069;-37
2021/05/29 01:32:05;;;;;;;2.47;0.80;;;24.90;37.00;;;;;;4372010;32;20181;-37
2021/05/29 01:34:34;;;;;;;3.83;1.02;;;24.90;36.90;;;;;;4372361;32;20062;-37
2021/05/29 01:37:04;;;;;;;2.17;0.70;;;25.00;36.90;;;;;;4372105;32;20086;-38
2021/05/29 01:39:31;;;;;;;9.73;0.93;;;25.10;36.70;;;;;;4372044;32;20070;-38
2021/05/29 01:41:58;;;;;;;3.67;0.85;;;25.20;36.60;;;;;;4371832;32;20177;-38
2021/05/29 01:44:25;;;;;;;3.62;1.00;;;25.30;36.30;;;;;;4372054;32;20082;-37
2021/05/29 01:46:52;;;;;;;7.32;0.98;;;25.30;36.30;;;;;;4371932;32;20614;-37
2021/05/29 01:49:19;;;;;;;1.08;0.82;;;25.40;36.10;;;;;;4371888;32;20096;-38
2021/05/29 01:51:45;;;;;;;4.18;0.95;;;25.40;36.00;;;;;;4371827;32;20097;-38
2021/05/29 01:54:15;;;;;;;2.25;0.70;;;25.50;36.00;;;;;;4387580;32;20543;-38
2021/05/29 01:56:42;;;;;;;2.90;0.80;;;25.60;36.00;;;;;;4389691;32;20050;-37
2021/05/29 01:59:09;;;;;;;4.22;1.00;;;25.60;35.80;;;;;;4375566;32;20100;-39
2021/05/29 02:01:36;;;;;;;5.55;0.80;;;25.70;36.30;;;;;;4389189;32;20449;-39
2021/05/29 02:04:03;;;;;;;15.88;1.58;;;25.80;35.60;;;;;;4389239;32;20481;-38
2021/05/29 02:06:30;;;;;;;3.17;0.80;;;25.90;35.30;;;;;;4389038;32;20109;-38
2021/05/29 02:08:56;;;;;;;4.05;0.80;;;26.00;35.20;;;;;;4388947;32;20064;-37
2021/05/29 02:11:23;;;;;;;3.62;0.80;;;26.20;35.00;;;;;;4375524;32;20073;-37
2021/05/29 02:13:49;;;;;;;1.70;0.60;;;26.30;34.60;;;;;;4389472;32;20073;-39
2021/05/29 02:16:16;;;;;;;10.30;0.95;;;26.40;34.30;;;;;;4374978;32;20146;-39
2021/05/29 02:18:42;;;;;;;1.10;0.70;;;26.60;34.10;;;;;;4389159;32;20070;-39
2021/05/29 02:21:12;;;;;;;3.50;0.80;;;26.70;33.90;;;;;;4389579;32;20076;-39
2021/05/29 02:23:41;;;;;;;2.35;0.75;;;26.70;34.00;;;;;;4389322;32;20081;-39
2021/05/29 02:26:13;;;;;;;1.55;0.77;;;26.80;34.00;;;;;;4389361;32;20073;-37
2021/05/29 02:28:42;;;;;;;3.65;0.80;;;26.80;33.80;;;;;;4389574;32;20095;-38
2021/05/29 02:31:09;;;;;;;6.00;1.00;;;26.80;33.80;;;;;;4388915;32;20061;-38
2021/05/29 02:33:36;;;;;;;2.33;1.05;;;26.80;33.90;;;;;;4375117;32;20095;-37
2021/05/29 02:36:04;;;;;;;4.65;0.77;;;26.90;34.00;;;;;;4374522;32;20054;-38
2021/05/29 02:38:33;;;;;;;3.62;0.68;;;26.90;33.90;;;;;;4388624;32;20077;-37
2021/05/29 02:40:59;;;;;;;6.07;0.93;;;27.00;34.10;;;;;;4375186;32;20064;-38
2021/05/29 02:43:26;;;;;;;8.38;0.98;;;27.20;34.00;;;;;;4388636;32;20066;-39
2021/05/29 02:45:53;;;;;;;4.70;0.70;;;27.30;33.80;;;;;;4380912;32;20157;-38
2021/05/29 02:48:20;;;;;;;3.85;1.05;;;27.40;33.40;;;;;;4388660;32;20057;-40
2021/05/29 02:50:46;;;;;;;9.25;1.00;;;27.60;33.20;;;;;;4388666;32;20480;-40
2021/05/29 02:53:14;;;;;;;7.50;0.85;;;27.80;32.90;;;;;;4388614;32;20148;-40
2021/05/29 02:55:41;;;;;;;6.85;0.90;;;27.90;32.70;;;;;;4388733;32;20097;-39
2021/05/29 02:58:08;;;;;;;4.78;0.80;;;28.10;32.40;;;;;;4387193;32;20485;-39
2021/05/29 03:00:40;;;;;;;6.78;0.80;;;28.30;32.00;;;;;;4388767;32;20066;-38
2021/05/29 03:03:09;;;;;;;7.20;0.77;;;28.50;31.90;;;;;;4388432;32;20069;-38
2021/05/29 03:05:40;;;;;;;8.02;1.00;;;28.70;31.70;;;;;;4388438;32;20072;-38
2021/05/29 03:08:07;;;;;;;3.47;1.20;;;28.80;31.60;;;;;;4388448;32;20060;-39
2021/05/29 03:10:33;;;;;;;4.35;0.80;;;29.10;31.60;;;;;;4388549;32;20093;-39
2021/05/29 03:13:00;;;;;;;4.45;0.80;;;29.30;31.30;;;;;;4388510;32;20591;-39
2021/05/29 03:15:27;;;;;;;3.42;0.80;;;29.50;31.10;;;;;;4386335;32;20073;-39
2021/05/29 03:17:54;;;;;;;2.85;0.85;;;29.60;31.00;;;;;;4386975;32;20119;-39
2021/05/29 03:20:26;;;;;;;4.93;1.12;;;29.80;30.90;;;;;;4388240;32;20086;-39
2021/05/29 03:22:52;;;;;;;11.32;1.23;;;30.20;30.60;;;;;;4387958;32;20082;-39
2021/05/29 03:25:19;;;;;;;6.75;1.00;;;30.70;30.20;;;;;;4386925;32;20069;-38
2021/05/29 03:27:47;;;;;;;4.45;1.73;;;31.20;29.70;;;;;;4388542;32;20505;-40
2021/05/29 03:30:16;;;;;;;3.92;1.00;;;31.80;29.60;;;;;;4388426;32;20157;-40
2021/05/29 03:32:42;;;;;;;3.70;0.90;;;32.30;29.30;;;;;;4387866;32;20089;-40
2021/05/29 03:35:10;;;;;;;3.83;1.30;;;32.60;29.00;;;;;;4400506;32;20069;-40
2021/05/29 03:37:37;;;;;;;5.68;1.25;;;32.90;28.80;;;;;;4400609;32;20140;-40
2021/05/29 03:40:06;;;;;;;3.03;1.20;;;33.30;28.50;;;;;;4400597;32;20069;-40
2021/05/29 03:42:32;;;;;;;5.62;1.12;;;33.70;28.30;;;;;;4400226;32;20073;-41
2021/05/29 03:44:59;;;;;;;7.47;2.10;;;34.00;28.00;;;;;;4397055;32;20058;-40
2021/05/29 03:47:26;;;;;;;10.68;3.67;;;34.20;27.80;;;;;;4385113;32;20553;-40
2021/05/29 03:49:52;;;;;;;17.87;3.62;;;34.30;27.60;;;;;;4372756;32;20089;-39
2021/05/29 03:52:18;;;;;;;7.53;2.42;;;34.30;27.40;;;;;;4385429;32;20062;-40
2021/05/29 03:54:45;;;;;;;7.60;2.40;;;34.40;27.40;;;;;;4385763;32;20058;-41
2021/05/29 03:57:11;;;;;;;8.77;2.40;;;34.60;27.30;;;;;;4385623;32;20081;-40
2021/05/29 03:59:38;;;;;;;7.57;2.42;;;35.00;27.30;;;;;;4372736;32;20180;-40
2021/05/29 04:02:05;;;;;;;7.10;2.67;;;35.40;26.90;;;;;;4385630;32;20148;-41
2021/05/29 04:04:31;;;;;;;9.13;3.78;;;35.70;26.80;;;;;;4387492;32;20054;-40
2021/05/29 04:07:00;;;;;;;6.30;1.90;;;35.80;26.60;;;;;;4387520;32;20156;-40
2021/05/29 04:09:26;;;;;;;9.85;2.60;;;35.60;26.60;;;;;;4387758;32;20089;-40
2021/05/29 04:11:53;;;;;;;10.77;1.67;;;35.30;26.80;;;;;;4387564;32;20057;-40
2021/05/29 04:14:19;;;;;;;19.67;2.78;;;35.10;26.90;;;;;;4388088;32;20058;-40
2021/05/29 04:16:46;;;;;;;12.15;2.65;;;34.90;27.10;;;;;;4387932;32;20064;-40
2021/05/29 04:19:12;;;;;;;8.70;2.30;;;34.80;27.30;;;;;;4388012;32;20069;-40
2021/05/29 04:21:39;;;;;;;8.52;2.53;;;34.70;27.20;;;;;;4387530;32;20593;-40
2021/05/29 04:24:06;;;;;;;7.95;2.97;;;34.70;27.30;;;;;;4387714;32;20149;-41
2021/05/29 04:26:33;;;;;;;11.63;2.97;;;34.90;27.30;;;;;;4387892;32;20069;-40
2021/05/29 04:28:59;;;;;;;8.55;2.25;;;35.10;27.20;;;;;;4387658;32;20242;-41
2021/05/29 04:31:25;;;;;;;12.52;2.80;;;35.30;27.00;;;;;;4387725;32;20504;-40
2021/05/29 04:33:52;;;;;;;14.18;2.87;;;35.40;26.90;;;;;;4389726;32;20470;-40
2021/05/29 04:36:18;;;;;;;12.48;3.47;;;35.40;26.90;;;;;;4390738;32;20073;-41
2021/05/29 04:38:45;;;;;;;12.15;3.50;;;35.50;26.80;;;;;;4390658;32;20590;-41
2021/05/29 04:41:11;;;;;;;15.10;3.67;;;35.60;26.70;;;;;;4390620;32;20101;-40
2021/05/29 04:43:38;;;;;;;9.38;4.22;;;35.50;26.60;;;;;;4390177;32;20536;-40
2021/05/29 04:46:04;;;;;;;15.70;4.45;;;35.50;26.50;;;;;;4400724;32;20072;-40
2021/05/29 04:48:31;;;;;;;17.42;4.80;;;35.60;26.40;;;;;;4405440;32;20153;-40
2021/05/29 04:51:13;;;;;;;10.02;4.53;;;35.60;26.30;;;;;;4405322;32;20098;-40
2021/05/29 04:53:44;;;;;;;12.15;4.90;;;35.60;26.00;;;;;;4405052;32;20173;-39
2021/05/29 04:56:14;;;;;;;9.13;3.78;;;35.60;25.40;;;;;;4391324;32;20141;-39
2021/05/29 04:58:41;;;;;;;12.90;4.55;;;35.30;25.90;;;;;;4391601;32;20078;-39
2021/05/29 05:01:10;;;;;;;13.60;5.10;;;35.10;26.10;;;;;;4391334;32;20080;-39
2021/05/29 05:03:37;;;;;;;12.57;4.90;;;35.00;26.40;;;;;;4405326;32;20258;-39
2021/05/29 05:06:04;;;;;;;9.93;4.75;;;34.90;26.60;;;;;;4404673;32;20466;-41
2021/05/29 05:08:31;;;;;;;11.15;3.92;;;34.70;26.40;;;;;;4391324;32;20060;-40
2021/05/29 05:10:58;;;;;;;11.02;4.00;;;34.60;26.50;;;;;;4405077;32;20109;-39
2021/05/29 05:13:25;;;;;;;7.32;2.58;;;34.60;26.80;;;;;;4390791;32;20627;-39
2021/05/29 05:15:52;;;;;;;8.43;2.05;;;34.60;27.60;;;;;;4405280;32;20168;-41
2021/05/29 05:18:20;;;;;;;6.50;1.30;;;34.50;28.10;;;;;;4405081;32;20057;-39
2021/05/29 05:20:47;;;;;;;10.00;1.77;;;34.40;28.30;;;;;;4404811;32;20182;-39
2021/05/29 05:23:14;;;;;;;5.25;1.33;;;34.20;29.30;;;;;;4405023;32;20081;-39
2021/05/29 05:25:41;;;;;;;4.22;1.25;;;33.90;28.90;;;;;;4391003;32;20207;-40
2021/05/29 05:28:07;;;;;;;4.87;1.33;;;33.70;28.80;;;;;;4404233;32;20084;-40
2021/05/29 05:30:34;;;;;;;2.72;0.95;;;33.60;28.80;;;;;;4404818;32;20070;-39
2021/05/29 05:33:04;;;;;;;6.65;1.10;;;33.50;28.80;;;;;;4404744;32;20254;-40
2021/05/29 05:35:30;;;;;;;4.93;2.20;;;33.50;28.60;;;;;;4405018;32;20084;-41
2021/05/29 05:37:57;;;;;;;4.90;1.98;;;33.50;28.40;;;;;;4390829;32;20092;-40
2021/05/29 05:40:23;;;;;;;7.47;0.80;;;33.40;28.30;;;;;;4405206;32;20132;-40
2021/05/29 05:42:50;;;;;;;3.67;0.62;;;33.20;29.10;;;;;;4404466;32;20054;-39
2021/05/29 05:45:16;;;;;;;4.00;0.50;;;32.90;29.80;;;;;;4398682;32;20065;-39
2021/05/29 05:47:43;;;;;;;3.90;0.40;;;32.40;30.70;;;;;;4389464;32;20085;-39
2021/05/29 05:50:10;;;;;;;3.55;0.82;;;31.90;31.60;;;;;;4389397;32;20065;-39
2021/05/29 05:52:40;;;;;;;6.85;0.73;;;31.40;32.70;;;;;;4388920;32;20137;-39
2021/05/29 05:55:08;;;;;;;9.98;5.65;;;31.00;33.80;;;;;;4389108;32;20080;-40
2021/05/29 05:57:34;;;;;;;2.92;0.80;;;30.80;34.00;;;;;;4362990;32;20116;-40
2021/05/29 06:00:06;;;;;;;3.60;0.90;;;30.60;33.70;;;;;;4374880;32;20085;-38
2021/05/29 06:02:32;;;;;;;7.12;0.90;;;30.50;33.90;;;;;;4388784;32;20065;-40
2021/05/29 06:04:59;;;;;;;6.75;0.70;;;30.30;33.40;;;;;;4389174;32;20092;-39
2021/05/29 06:07:26;;;;;;;12.35;1.08;;;30.10;33.10;;;;;;4388905;32;20617;-40
2021/05/29 06:09:52;;;;;;;5.50;0.88;;;29.90;33.40;;;;;;4389571;32;20101;-39
2021/05/29 06:12:19;;;;;;;1.80;0.55;;;29.70;33.00;;;;;;4389237;32;20470;-39
2021/05/29 06:20:15;;;;;;;2.28;0.70;;;29.70;33.00;;;;;;4388722;32;20547;-41
2021/05/29 06:22:41;;;;;;;5.87;1.10;;;29.80;32.80;;;;;;4389428;32;20089;-40
2021/05/29 06:25:10;;;;;;;5.30;1.20;;;29.80;33.10;;;;;;4390711;32;20506;-41
2021/05/29 06:27:37;;;;;;;6.65;0.90;;;29.90;32.90;;;;;;4389490;32;20058;-40
2021/05/29 06:30:07;;;;;;;6.70;0.93;;;30.00;32.50;;;;;;4374849;32;20100;-40
2021/05/29 06:32:37;;;;;;;7.40;1.10;;;30.20;32.30;;;;;;4388844;32;20093;-39
2021/05/29 06:35:05;;;;;;;5.35;1.20;;;30.20;32.10;;;;;;4388801;32;20518;-39
2021/05/29 06:37:32;;;;;;;9.82;1.25;;;30.30;31.60;;;;;;4370601;32;20101;-40
2021/05/29 06:39:58;;;;;;;3.20;1.00;;;30.40;31.50;;;;;;4370838;32;20617;-39
2021/05/29 06:42:24;;;;;;;6.57;1.20;;;30.30;31.10;;;;;;4371081;32;20076;-40
2021/05/29 06:44:51;;;;;;;2.97;0.73;;;30.40;31.00;;;;;;4374016;32;20080;-39
2021/05/29 06:47:17;;;;;;;8.20;1.45;;;30.40;31.20;;;;;;4386045;32;20057;-39
2021/05/29 06:49:44;;;;;;;10.27;1.40;;;30.40;31.60;;;;;;4386014;32;20070;-39
2021/05/29 06:52:16;;;;;;;8.65;1.25;;;30.50;31.40;;;;;;4385915;32;20508;-41
2021/05/29 06:55:07;;;;;;;6.07;1.00;;;30.70;31.40;;;;;;4385727;32;20561;-40
2021/05/29 07:00:19;;;;;;;4.10;0.90;;;31.10;30.90;;;;;;4385965;32;20053;-40
2021/05/29 07:02:45;;;;;;;2.40;1.23;;;31.20;31.00;;;;;;4373306;32;20078;-38
2021/05/29 07:05:13;;;;;;;4.70;1.02;;;31.10;31.10;;;;;;4385755;32;20100;-39
2021/05/29 07:07:41;;;;;;;3.92;1.87;;;31.00;31.90;;;;;;4385917;32;20077;-40
2021/05/29 07:10:08;;;;;;;9.18;1.45;;;30.80;33.70;;;;;;4385599;32;20525;-38
2021/05/29 07:12:35;;;;;;;15.93;1.55;;;30.50;34.70;;;;;;4373244;32;20093;-39
2021/05/29 07:15:02;;;;;;;8.20;1.42;;;30.20;35.10;;;;;;4394641;32;20073;-39
2021/05/29 07:17:33;;;;;;;9.85;2.30;;;29.90;35.30;;;;;;4389556;32;20069;-37
2021/05/29 07:20:00;;;;;;;14.10;1.52;;;29.70;35.80;;;;;;4403163;32;20065;-38
2021/05/29 07:22:26;;;;;;;3.70;1.17;;;29.60;36.50;;;;;;4403306;32;20157;-38
2021/05/29 07:24:53;;;;;;;8.93;1.30;;;29.40;36.30;;;;;;4403188;32;20066;-38
2021/05/29 07:27:19;;;;;;;9.88;1.70;;;29.30;35.80;;;;;;4403181;32;20099;-39
2021/05/29 07:29:46;;;;;;;5.40;1.37;;;29.40;36.60;;;;;;4403276;32;20058;-39
2021/05/29 07:32:12;;;;;;;10.40;1.35;;;29.50;37.10;;;;;;4369943;32;20208;-39
2021/05/29 07:34:39;;;;;;;5.05;0.90;;;29.70;36.20;;;;;;4370226;32;20071;-39
2021/05/29 07:37:07;;;;;;;5.72;1.80;;;29.80;36.30;;;;;;4370246;32;20077;-40
2021/05/29 07:39:34;;;;;;;4.03;1.00;;;29.90;35.60;;;;;;4358298;32;20085;-40
2021/05/29 07:42:01;;;;;;;6.62;0.95;;;30.10;35.60;;;;;;4370399;32;20074;-40
2021/05/29 07:44:28;;;;;;;0.60;0.50;;;30.20;35.40;;;;;;4370466;32;20175;-39
2021/05/29 07:46:54;;;;;;;1.00;0.57;;;30.30;33.70;;;;;;4370855;32;20591;-40
2021/05/29 07:49:21;;;;;;;1.98;0.60;;;30.50;33.80;;;;;;4370591;32;20552;-38
2021/05/29 07:51:47;;;;;;;5.28;0.65;;;30.60;33.20;;;;;;4370158;32;20066;-39
2021/05/29 07:54:14;;;;;;;8.68;0.82;;;30.70;32.20;;;;;;4370336;32;20187;-40
2021/05/29 07:56:40;;;;;;;2.20;1.62;;;30.90;32.70;;;;;;4370496;32;20089;-39
2021/05/29 07:59:11;;;;;;;7.22;1.10;;;31.00;32.60;;;;;;4370728;32;20089;-40
2021/05/29 08:01:37;;;;;;;6.10;1.00;;;31.10;32.10;;;;;;4370336;32;20141;-40
2021/05/29 08:04:04;;;;;;;2.20;0.85;;;31.30;31.90;;;;;;4384094;32;20555;-41
2021/05/29 08:06:31;;;;;;;1.87;0.50;;;31.50;31.50;;;;;;4402894;32;20060;-40
2021/05/29 08:08:57;;;;;;;5.00;1.00;;;31.60;31.00;;;;;;4406021;32;20064;-40
2021/05/29 08:11:25;;;;;;;3.97;1.25;;;31.80;31.30;;;;;;4406085;32;20058;-41
2021/05/29 08:13:53;;;;;;;12.13;1.23;;;32.00;31.30;;;;;;4391860;32;20078;-41
2021/05/29 08:16:21;;;;;;;4.57;1.00;;;32.20;31.20;;;;;;4406034;32;20187;-41
2021/05/29 08:18:48;;;;;;;6.70;1.15;;;32.40;30.80;;;;;;4406170;32;20085;-41
2021/05/29 08:21:15;;;;;;;2.45;0.82;;;32.60;30.40;;;;;;4405685;32;20070;-40
2021/05/29 08:23:42;;;;;;;7.87;1.10;;;32.80;30.10;;;;;;4405447;32;20081;-40
2021/05/29 08:26:08;;;;;;;3.35;0.90;;;33.00;29.90;;;;;;4405627;32;20062;-40
2021/05/29 08:28:36;;;;;;;5.80;1.15;;;33.10;30.00;;;;;;4405761;32;20057;-40
2021/05/29 08:31:03;;;;;;;5.68;0.80;;;33.30;29.90;;;;;;4405747;32;20157;-40
2021/05/29 08:33:29;;;;;;;5.35;1.33;;;33.50;29.80;;;;;;4405947;32;20062;-41
2021/05/29 08:35:56;;;;;;;6.82;0.80;;;33.60;30.00;;;;;;4405776;32;20054;-40
2021/05/29 08:38:22;;;;;;;4.15;0.43;;;33.80;29.70;;;;;;4405786;32;20056;-39
2021/05/29 08:40:49;;;;;;;4.78;0.60;;;34.00;29.60;;;;;;4405541;32;20059;-40
2021/05/29 08:43:15;;;;;;;0.70;0.70;;;34.20;29.00;;;;;;4405797;32;20513;-40
2021/05/29 08:45:44;;;;;;;4.90;0.88;;;34.40;28.90;;;;;;4397406;32;20465;-41
2021/05/29 08:48:11;;;;;;;6.68;1.10;;;34.60;28.80;;;;;;4389025;32;20146;-40
2021/05/29 08:50:37;;;;;;;5.62;0.85;;;34.80;28.80;;;;;;4390686;32;20142;-41
2021/05/29 08:53:04;;;;;;;3.05;0.75;;;34.90;28.70;;;;;;4389154;32;20092;-41
2021/05/29 08:55:31;;;;;;;5.12;1.27;;;35.20;28.70;;;;;;4390347;32;20073;-41
2021/05/29 08:57:58;;;;;;;6.32;0.82;;;35.40;28.00;;;;;;4388891;32;20147;-41
2021/05/29 09:00:26;;;;;;;2.30;0.70;;;35.70;27.90;;;;;;4390474;32;20066;-42
2021/05/29 09:03:04;;;;;;;6.22;1.98;;;36.00;27.80;;;;;;4388616;32;20104;-42
2021/05/29 09:05:53;;;;;;;7.60;2.00;;;36.30;27.80;;;;;;4390520;32;20057;-41
2021/05/29 09:08:21;;;;;;;10.90;2.35;;;36.40;27.60;;;;;;4390088;32;20065;-41
2021/05/29 09:10:53;;;;;;;7.45;2.30;;;36.30;27.40;;;;;;4388649;32;20168;-42
2021/05/29 09:13:25;;;;;;;6.37;1.80;;;36.30;27.70;;;;;;4389842;32;20074;-41
2021/05/29 09:16:12;;;;;;;7.45;1.70;;;36.20;27.70;;;;;;4389696;32;20161;-41
2021/05/29 09:18:46;;;;;;;4.72;1.25;;;36.10;28.10;;;;;;4389073;32;20137;-41
2021/05/29 09:21:21;;;;;;;;;;;36.10;27.90;;;;;;4390143;32;20062;-40
2021/05/29 09:23:52;;;;;;;;;;;36.00;27.90;;;;;;4388569;32;20046;-41
2021/05/29 09:26:21;;;;;;;5.45;1.45;;;36.00;28.00;;;;;;4389856;32;19997;-42
2021/05/29 09:28:48;;;;;;;10.18;1.55;;;35.90;28.00;;;;;;4389591;32;20073;-41
2021/05/29 09:31:16;;;;;;;5.85;1.10;;;35.90;28.30;;;;;;4388263;32;20061;-41
2021/05/29 09:33:44;;;;;;;4.35;1.55;;;35.90;28.10;;;;;;4389693;32;20472;-41
2021/05/29 09:36:15;;;;;;;13.73;2.25;;;36.20;28.00;;;;;;4388060;32;20536;-42
2021/05/29 09:38:47;;;;;;;10.40;2.12;;;36.40;27.90;;;;;;4388854;32;20542;-42
2021/05/29 09:41:31;;;;;;;12.18;2.80;;;36.70;27.80;;;;;;4389639;32;20085;-42
2021/05/29 09:44:05;;;;;;;4.18;1.75;;;37.00;27.40;;;;;;4389484;32;20061;-41
2021/05/29 09:46:53;;;;;;;15.13;2.67;;;37.40;27.20;;;;;;4389383;32;20174;-42
2021/05/29 09:49:20;;;;;;;9.07;2.80;;;37.70;26.90;;;;;;4389233;32;20069;-43
2021/05/29 09:51:46;;;;;;;14.85;3.65;;;38.00;26.70;;;;;;4388970;32;20524;-41
2021/05/29 09:54:13;;;;;;;9.90;2.95;;;38.20;26.30;;;;;;4388989;32;20081;-43
2021/05/29 09:56:42;;;;;;;7.30;2.45;;;38.40;26.30;;;;;;4389116;32;20054;-44
2021/05/29 09:59:13;;;;;;;7.10;2.58;;;38.40;26.10;;;;;;4389294;32;20159;-42
2021/05/29 10:01:57;;;;;;;8.32;2.30;;;38.40;26.10;;;;;;4389562;32;20067;-43
2021/05/29 10:05:15;;;;;;;8.55;2.17;;;38.40;26.20;;;;;;4389450;32;20527;-42
2021/05/29 10:07:39;;;;;;;6.15;2.03;;;38.50;26.40;;;;;;4382649;32;20470;-43
2021/05/29 10:10:07;;;;;;;8.80;2.58;;;38.50;26.60;;;;;;4375665;32;20609;-43
2021/05/29 10:12:33;;;;;;;8.55;2.62;;;38.40;26.60;;;;;;4389286;32;20143;-44
2021/05/29 10:15:00;;;;;;;11.32;2.58;;;38.30;26.60;;;;;;4389062;32;20541;-42
2021/05/29 10:17:26;;;;;;;9.10;2.45;;;38.10;27.00;;;;;;4389037;32;20066;-42
2021/05/29 10:19:53;;;;;;;6.97;2.78;;;37.90;27.50;;;;;;4349948;32;20085;-41
2021/05/29 10:22:19;;;;;;;7.97;2.55;;;37.60;27.00;;;;;;4346215;32;20133;-42
2021/05/29 10:24:47;;;;;;;10.20;2.45;;;37.20;27.00;;;;;;4371279;32;20078;-42
2021/05/29 10:27:23;;;;;;;6.85;2.47;;;36.90;27.30;;;;;;4371119;32;20077;-42
2021/05/29 10:30:00;;;;;;;20.37;3.37;;;36.70;27.50;;;;;;4347688;32;20073;-41
2021/05/29 10:32:27;;;;;;;6.57;2.37;;;36.50;27.70;;;;;;4346426;32;20077;-41
2021/05/29 10:35:05;;;;;;;14.48;3.55;;;36.50;27.90;;;;;;4371572;32;20097;-41
2021/05/29 10:37:34;;;;;;;12.70;2.50;;;36.40;28.00;;;;;;4371183;32;20264;-43
2021/05/29 10:40:30;;;;;;;12.45;2.78;;;36.40;28.30;;;;;;4371204;32;20577;-41
2021/05/29 10:43:20;;;;;;;9.93;2.03;;;36.40;28.50;;;;;;4371121;32;20117;-42
2021/05/29 10:45:53;;;;;;;16.40;2.05;;;36.50;28.20;;;;;;4370965;32;20086;-41
2021/05/29 10:48:23;;;;;;;18.33;2.08;;;36.50;28.20;;;;;;4371276;32;20506;-41
2021/05/29 10:53:46;;;;;;;9.73;3.10;;;36.60;28.50;;;;;;4372588;32;20156;-42
2021/05/29 10:56:19;;;;;;;7.87;2.35;;;36.90;28.60;;;;;;4372400;32;20101;-41
2021/05/29 10:59:14;;;;;;;9.90;2.05;;;37.10;28.70;;;;;;4373345;32;20098;-42
2021/05/29 11:01:42;;;;;;;11.75;2.00;;;37.10;28.80;;;;;;4355712;32;20058;-41
2021/05/29 11:04:18;;;;;;;11.68;2.47;;;37.10;28.90;;;;;;4341021;33;20074;-42
2021/05/29 11:07:16;;;;;;;3.83;1.83;;;37.30;29.20;;;;;;4341127;33;20470;-41
2021/05/29 11:09:47;;;;;;;13.55;2.50;;;37.40;29.00;;;;;;4341288;33;20066;-41
2021/05/29 11:12:13;;;;;;;7.97;2.05;;;37.50;28.90;;;;;;4340883;33;20498;-41
2021/05/29 11:14:49;;;;;;;7.43;2.22;;;37.50;29.00;;;;;;4340801;33;20555;-42
2021/05/29 11:17:20;;;;;;;7.03;1.67;;;37.50;29.10;;;;;;4340884;33;20591;-41
2021/05/29 11:20:11;;;;;;;9.95;1.65;;;37.50;29.00;;;;;;4329342;33;20082;-41
2021/05/29 11:22:49;;;;;;;7.45;2.08;;;37.40;28.80;;;;;;4340791;33;20074;-42
2021/05/29 11:25:23;;;;;;;6.25;2.05;;;37.40;29.50;;;;;;4340756;33;20083;-41
2021/05/29 11:27:50;;;;;;;8.00;2.20;;;37.70;29.50;;;;;;4341283;33;20156;-41
2021/05/29 11:30:21;;;;;;;3.33;2.15;;;38.00;29.40;;;;;;4341651;33;20611;-43
2021/05/29 11:35:53;;;;;;;9.98;2.70;;;38.30;29.20;;;;;;4366431;32;20549;-41
2021/05/29 11:38:37;;;;;;;10.20;3.03;;;38.30;29.20;;;;;;4379785;32;20482;-41
2021/05/29 11:41:08;;;;;;;9.93;2.45;;;38.20;29.30;;;;;;4402866;32;20076;-42
2021/05/29 11:43:48;;;;;;;11.18;2.53;;;38.10;29.50;;;;;;4402580;32;20065;-42
2021/05/29 11:46:22;;;;;;;15.30;2.97;;;38.00;29.80;;;;;;4391461;32;20084;-41
2021/05/29 11:48:56;;;;;;;12.65;2.20;;;38.10;29.70;;;;;;4388035;32;20504;-42
2021/05/29 11:51:24;;;;;;;13.57;2.10;;;38.00;29.50;;;;;;4361913;32;20082;-41
2021/05/29 11:53:53;;;;;;;7.60;2.20;;;38.00;29.60;;;;;;4387790;32;20061;-43
2021/05/29 11:56:29;;;;;;;9.68;2.45;;;38.00;29.30;;;;;;4388024;32;20058;-42
2021/05/29 11:58:56;;;;;;;7.95;1.98;;;38.00;29.60;;;;;;4388028;32;20089;-41
2021/05/29 12:01:39;;;;;;;10.20;2.45;;;37.90;29.10;;;;;;4373516;32;20503;-42
2021/05/29 12:04:07;;;;;;;6.32;2.12;;;37.70;28.90;;;;;;4369679;32;20259;-42
2021/05/29 12:06:35;;;;;;;5.75;1.65;;;37.50;28.90;;;;;;4357778;32;20657;-40
2021/05/29 12:09:05;;;;;;;5.37;1.55;;;37.30;29.00;;;;;;4370253;32;20086;-40
2021/05/29 12:11:33;;;;;;;7.37;2.30;;;37.00;29.20;;;;;;4370141;32;20078;-41
2021/05/29 12:14:03;;;;;;;7.90;1.50;;;36.80;29.30;;;;;;4370196;32;20154;-40
2021/05/29 12:16:50;;;;;;;4.85;1.30;;;36.60;29.50;;;;;;4370473;32;20076;-41
2021/05/29 12:19:35;;;;;;;3.97;1.95;;;36.50;29.60;;;;;;4369825;32;20185;-41
2021/05/29 12:22:15;;;;;;;5.65;2.83;;;36.40;29.60;;;;;;4369801;32;20170;-41
2021/05/29 12:24:43;;;;;;;5.37;1.60;;;36.30;29.50;;;;;;4370370;32;20070;-41
2021/05/29 12:27:16;;;;;;;5.85;1.95;;;36.20;29.60;;;;;;4370319;32;20252;-40
2021/05/29 12:29:43;;;;;;;5.93;2.40;;;36.20;29.60;;;;;;4370806;32;20085;-41
2021/05/29 12:32:12;;;;;;;10.52;1.75;;;36.10;29.50;;;;;;4345231;32;20069;-41
2021/05/29 12:34:49;;;;;;;4.45;2.58;;;36.10;29.70;;;;;;4375026;32;20064;-41
2021/05/29 12:37:16;;;;;;;7.90;2.10;;;36.00;29.40;;;;;;4387978;32;20062;-42
2021/05/29 12:40:12;;;;;;;5.32;2.17;;;36.00;29.40;;;;;;4387502;32;20069;-40
2021/05/29 12:42:49;;;;;;;6.95;3.30;;;36.10;29.50;;;;;;4376027;32;20061;-42
2021/05/29 12:45:18;;;;;;;8.23;3.40;;;36.00;29.30;;;;;;4392700;32;20058;-40
2021/05/29 12:47:52;;;;;;;18.95;3.42;;;36.00;29.40;;;;;;4402913;32;20547;-41
2021/05/29 12:50:18;;;;;;;;;;;35.90;29.50;;;;;;4403249;32;20058;-41
2021/05/29 12:52:45;;;;;;;10.38;3.85;;;35.90;29.40;;;;;;4402831;32;20042;-41
2021/05/29 12:55:25;;;;;;;5.75;2.72;;;35.80;29.40;;;;;;4405235;32;20474;-41
2021/05/29 12:57:53;;;;;;;4.60;1.98;;;35.80;29.40;;;;;;4391146;32;20494;-41
2021/05/29 13:00:30;;;;;;;10.23;3.95;;;35.70;29.20;;;;;;4405689;32;20093;-41
2021/05/29 13:09:26;;;;;;;8.55;4.45;;;35.70;29.30;;;;;;4393095;32;20076;-41
2021/05/29 13:11:52;;;;;;;13.80;4.80;;;35.70;29.30;;;;;;4392528;32;20197;-40
2021/05/29 13:14:30;;;;;;;10.32;4.93;;;35.80;29.40;;;;;;4405017;32;20061;-40
2021/05/29 13:16:59;;;;;;;12.00;4.20;;;35.80;29.30;;;;;;4405220;32;20482;-41
2021/05/29 13:19:51;;;;;;;10.25;3.55;;;35.90;29.50;;;;;;4405008;32;20318;-41